createdAt,value
2022-11-30T00:01:36.924Z,33.80
2022-11-30T00:04:05.230Z,32.63
2022-11-30T00:06:33.462Z,32.17
2022-11-30T00:09:01.985Z,29.73
2022-11-30T00:11:31.416Z,30.43
2022-11-30T00:13:59.707Z,29.00
2022-11-30T00:16:28.716Z,30.30
2022-11-30T00:18:57.222Z,30.33
2022-11-30T00:21:25.264Z,31.53
2022-11-30T00:23:53.691Z,33.03
2022-11-30T00:26:22.849Z,31.73
2022-11-30T00:28:52.576Z,29.90
2022-11-30T00:31:21.509Z,30.93
2022-11-30T00:33:50.027Z,32.00
2022-11-30T00:36:20.164Z,32.00
2022-11-30T00:38:48.521Z,34.30
2022-11-30T00:41:18.173Z,31.40
2022-11-30T00:43:46.735Z,32.40
2022-11-30T00:46:16.534Z,31.33
2022-11-30T00:48:44.823Z,32.57
2022-11-30T00:51:13.273Z,30.37
2022-11-30T00:53:41.936Z,34.53
2022-11-30T00:56:11.017Z,34.37
2022-11-30T00:58:39.234Z,31.83
2022-11-30T01:01:07.811Z,35.30
2022-11-30T01:03:38.416Z,32.80
2022-11-30T01:06:08.073Z,33.93
2022-11-30T01:08:36.620Z,32.80
2022-11-30T01:11:14.503Z,30.50
2022-11-30T01:13:42.921Z,31.63
2022-11-30T01:16:13.103Z,34.83
2022-11-30T01:18:43.320Z,33.27
2022-11-30T01:21:13.735Z,34.33
2022-11-30T01:23:42.104Z,34.40
2022-11-30T01:26:10.788Z,34.30
2022-11-30T01:28:40.867Z,35.03
2022-11-30T01:31:10.392Z,31.80
2022-11-30T01:33:38.741Z,35.10
2022-11-30T01:36:10.923Z,32.90
2022-11-30T01:38:41.406Z,33.70
2022-11-30T01:41:11.074Z,33.73
2022-11-30T01:43:41.244Z,35.40
2022-11-30T01:46:20.698Z,32.93
2022-11-30T01:48:52.405Z,35.53
2022-11-30T01:51:22.052Z,36.37
2022-11-30T01:53:50.494Z,35.13
2022-11-30T01:56:19.254Z,36.00
2022-11-30T01:58:47.429Z,33.73
2022-11-30T02:01:15.790Z,35.93
2022-11-30T02:03:49.100Z,36.43
2022-11-30T02:06:17.403Z,35.50
2022-11-30T02:08:47.495Z,36.03
2022-11-30T02:11:16.299Z,32.80
2022-11-30T02:13:59.744Z,35.27
2022-11-30T02:16:32.874Z,36.87
2022-11-30T02:19:11.387Z,35.33
2022-11-30T02:21:43.909Z,34.77
2022-11-30T02:24:32.600Z,34.67
2022-11-30T02:27:19.869Z,36.20
2022-11-30T02:29:51.203Z,34.70
2022-11-30T02:32:24.144Z,36.90
2022-11-30T02:34:53.831Z,35.70
2022-11-30T02:37:23.516Z,34.70
2022-11-30T02:39:51.869Z,35.60
2022-11-30T02:42:19.931Z,36.47
2022-11-30T02:44:50.802Z,34.90
2022-11-30T02:47:24.134Z,37.07
2022-11-30T02:49:56.697Z,36.13
2022-11-30T02:52:27.136Z,38.03
2022-11-30T02:54:55.448Z,35.50
2022-11-30T02:57:23.567Z,37.10
2022-11-30T02:59:53.161Z,37.87
2022-11-30T03:02:21.285Z,32.67
2022-11-30T03:04:49.777Z,36.77
2022-11-30T03:07:17.956Z,37.37
2022-11-30T03:09:46.073Z,38.40
2022-11-30T03:12:14.180Z,41.10
2022-11-30T03:14:42.429Z,35.70
2022-11-30T03:17:12.298Z,35.27
2022-11-30T03:19:40.417Z,35.17
2022-11-30T03:22:08.544Z,36.87
2022-11-30T03:24:36.823Z,37.87
2022-11-30T03:27:05.363Z,38.07
2022-11-30T03:29:33.506Z,37.20
2022-11-30T03:32:01.986Z,36.13
2022-11-30T03:34:31.783Z,36.17
2022-11-30T03:37:00.021Z,35.40
2022-11-30T03:39:28.170Z,37.07
2022-11-30T03:41:56.297Z,39.67
2022-11-30T03:44:24.773Z,38.23
2022-11-30T03:46:52.905Z,36.37
2022-11-30T03:49:20.966Z,36.27
2022-11-30T03:51:50.933Z,37.27
2022-11-30T03:54:19.100Z,39.57
2022-11-30T03:56:47.482Z,37.20
2022-11-30T03:59:15.636Z,36.77
2022-11-30T04:01:43.885Z,39.27
2022-11-30T04:04:12.580Z,39.37
2022-11-30T04:06:40.751Z,38.83
2022-11-30T04:09:10.695Z,34.47
2022-11-30T04:11:38.791Z,33.83
2022-11-30T04:14:06.898Z,33.77
2022-11-30T04:16:36.177Z,37.50
2022-11-30T04:19:04.716Z,38.53
2022-11-30T04:21:32.870Z,35.20
2022-11-30T04:24:00.919Z,37.40
2022-11-30T04:26:30.477Z,35.80
2022-11-30T04:29:02.137Z,37.10
2022-11-30T04:31:32.311Z,35.97
2022-11-30T04:34:00.572Z,35.10
2022-11-30T04:36:28.906Z,38.27
2022-11-30T04:38:57.282Z,36.27
2022-11-30T04:41:25.393Z,37.80
2022-11-30T04:43:54.918Z,35.83
2022-11-30T04:46:23.128Z,36.57
2022-11-30T04:48:51.246Z,38.43
2022-11-30T04:51:19.679Z,37.07
2022-11-30T04:53:47.861Z,37.10
2022-11-30T04:56:16.291Z,36.67
2022-11-30T04:58:44.533Z,37.40
2022-11-30T05:01:14.263Z,40.73
2022-11-30T05:03:42.549Z,35.90
2022-11-30T05:06:10.781Z,39.87
2022-11-30T05:08:39.067Z,37.43
2022-11-30T05:11:07.116Z,37.73
2022-11-30T05:13:35.133Z,36.30
2022-11-30T05:16:03.244Z,35.57
2022-11-30T05:18:33.596Z,38.13
2022-11-30T05:21:01.850Z,37.10
2022-11-30T05:23:30.464Z,35.67
2022-11-30T05:25:58.807Z,36.27
2022-11-30T05:28:26.944Z,38.70
2022-11-30T05:30:55.392Z,35.17
2022-11-30T05:33:23.525Z,34.67
2022-11-30T05:35:53.008Z,35.60
2022-11-30T05:38:21.236Z,37.60
2022-11-30T05:40:49.471Z,37.30
2022-11-30T05:43:18.923Z,36.57
2022-11-30T05:45:47.433Z,39.20
2022-11-30T05:48:15.566Z,38.60
2022-11-30T05:50:43.741Z,34.80
2022-11-30T05:53:13.189Z,36.43
2022-11-30T05:55:41.433Z,36.03
2022-11-30T05:58:10.268Z,37.00
2022-11-30T06:00:38.577Z,38.20
2022-11-30T06:03:07.479Z,37.57
2022-11-30T06:05:36.219Z,38.13
2022-11-30T06:08:04.518Z,39.07
2022-11-30T06:10:34.028Z,36.00
2022-11-30T06:13:07.930Z,35.30
2022-11-30T06:15:35.983Z,37.27
2022-11-30T06:18:04.819Z,39.43
2022-11-30T06:20:32.948Z,39.17
2022-11-30T06:23:01.468Z,37.93
2022-11-30T06:25:29.594Z,37.70
2022-11-30T06:27:59.092Z,36.47
2022-11-30T06:30:27.192Z,37.07
2022-11-30T06:32:55.387Z,37.73
2022-11-30T06:35:23.847Z,38.10
2022-11-30T06:37:53.438Z,39.70
2022-11-30T06:40:21.698Z,37.77
2022-11-30T06:42:49.808Z,38.17
2022-11-30T06:45:19.660Z,38.13
2022-11-30T06:47:47.881Z,35.17
2022-11-30T06:50:16.320Z,36.63
2022-11-30T06:52:44.333Z,38.70
2022-11-30T06:55:12.323Z,38.83
2022-11-30T06:57:40.486Z,37.57
2022-11-30T07:00:10.249Z,37.57
2022-11-30T07:02:39.661Z,38.77
2022-11-30T07:05:08.080Z,37.13
2022-11-30T07:07:36.722Z,35.77
2022-11-30T07:10:05.613Z,39.03
2022-11-30T07:12:36.762Z,36.07
2022-11-30T07:15:05.448Z,40.30
2022-11-30T07:17:33.563Z,39.80
2022-11-30T07:20:03.637Z,37.50
2022-11-30T07:22:31.648Z,38.40
2022-11-30T07:25:17.272Z,42.17
2022-11-30T07:27:45.448Z,38.50
2022-11-30T07:30:14.334Z,37.73
2022-11-30T07:32:42.400Z,38.50
2022-11-30T07:35:11.920Z,37.17
2022-11-30T07:37:40.015Z,37.30
2022-11-30T07:40:09.563Z,36.40
2022-11-30T07:42:37.720Z,39.73
2022-11-30T07:45:06.905Z,38.40
2022-11-30T07:47:35.073Z,37.17
2022-11-30T07:50:03.152Z,38.60
2022-11-30T07:52:33.761Z,37.50
2022-11-30T07:55:01.831Z,36.73
2022-11-30T07:57:30.098Z,36.53
2022-11-30T07:59:58.066Z,35.60
2022-11-30T08:02:26.392Z,37.27
2022-11-30T08:04:57.998Z,40.80
2022-11-30T08:07:26.063Z,39.57
2022-11-30T08:09:55.471Z,37.17
2022-11-30T08:12:23.820Z,37.53
2022-11-30T08:15:18.765Z,39.37
2022-11-30T08:17:39.911Z,36.90
2022-11-30T08:20:09.257Z,36.87
2022-11-30T08:22:37.643Z,36.73
2022-11-30T08:25:10.387Z,35.33
2022-11-30T08:27:38.746Z,35.03
2022-11-30T08:30:08.238Z,35.10
2022-11-30T08:32:36.565Z,34.53
2022-11-30T08:35:04.976Z,33.27
2022-11-30T08:37:33.239Z,32.37
2022-11-30T08:40:01.385Z,33.50
2022-11-30T08:42:31.158Z,34.27
2022-11-30T08:44:59.674Z,31.73
2022-11-30T08:47:28.012Z,34.27
2022-11-30T08:49:56.119Z,32.87
2022-11-30T08:52:24.142Z,33.17
2022-11-30T08:54:52.710Z,32.90
2022-11-30T08:57:22.470Z,29.07
2022-11-30T08:59:51.883Z,32.50
2022-11-30T09:02:20.581Z,33.40
2022-11-30T09:04:51.481Z,32.67
2022-11-30T09:07:20.073Z,29.80
2022-11-30T09:09:48.453Z,32.87
2022-11-30T09:12:16.507Z,34.37
2022-11-30T09:14:45.695Z,31.67
2022-11-30T09:17:15.757Z,30.43
2022-11-30T09:19:44.683Z,32.23
2022-11-30T09:22:12.764Z,32.30
2022-11-30T09:24:41.514Z,31.67
2022-11-30T09:27:10.069Z,33.80
2022-11-30T09:29:38.086Z,31.93
2022-11-30T09:32:06.772Z,32.87
2022-11-30T09:34:36.222Z,31.53
2022-11-30T09:37:04.446Z,32.90
2022-11-30T09:39:32.926Z,30.90
2022-11-30T09:42:24.278Z,32.93
2022-11-30T09:44:59.327Z,31.10
2022-11-30T09:47:39.563Z,33.77
2022-11-30T09:50:18.944Z,30.90
2022-11-30T09:52:50.337Z,30.07
2022-11-30T09:55:24.163Z,31.43
2022-11-30T09:57:54.207Z,30.07
2022-11-30T10:00:23.544Z,28.70
2022-11-30T10:02:53.401Z,32.80
2022-11-30T10:05:24.552Z,30.30
2022-11-30T10:08:16.733Z,31.20
2022-11-30T10:10:50.567Z,31.80
2022-11-30T10:13:27.898Z,33.77
2022-11-30T10:16:05.165Z,31.27
2022-11-30T10:18:42.287Z,32.67
2022-11-30T10:21:24.232Z,30.20
2022-11-30T10:24:05.815Z,30.40
2022-11-30T10:26:35.322Z,29.33
2022-11-30T10:29:13.956Z,27.60
2022-11-30T10:31:43.996Z,30.40
2022-11-30T10:34:19.660Z,26.73
2022-11-30T10:36:52.886Z,27.73
2022-11-30T10:39:23.937Z,29.30
2022-11-30T10:41:56.945Z,29.40
2022-11-30T10:44:28.414Z,27.93
2022-11-30T10:47:00.964Z,27.60
2022-11-30T10:49:30.377Z,28.87
2022-11-30T10:52:02.718Z,28.50
2022-11-30T10:54:31.716Z,28.57
2022-11-30T10:57:01.203Z,27.90
2022-11-30T10:59:37.734Z,28.27
2022-11-30T11:02:38.089Z,30.83
2022-11-30T11:05:15.688Z,28.70
2022-11-30T11:07:59.827Z,31.53
2022-11-30T11:10:35.256Z,28.17
2022-11-30T11:13:04.398Z,28.57
2022-11-30T11:15:33.830Z,29.37
2022-11-30T11:18:26.353Z,29.40
2022-11-30T11:21:06.135Z,30.67
2022-11-30T11:23:38.210Z,27.60
2022-11-30T11:26:08.128Z,29.97
2022-11-30T11:28:36.798Z,26.10
2022-11-30T11:31:18.898Z,27.33
2022-11-30T11:33:54.481Z,30.27
2022-11-30T11:36:28.560Z,28.97
2022-11-30T11:38:58.677Z,29.70
2022-11-30T11:41:29.628Z,29.43
2022-11-30T11:44:01.519Z,30.60
2022-11-30T11:46:30.273Z,28.80
2022-11-30T11:49:00.255Z,31.90
2022-11-30T11:51:33.055Z,31.47
2022-11-30T11:54:05.952Z,29.70
2022-11-30T11:56:35.921Z,29.83
2022-11-30T11:59:13.891Z,31.20
2022-11-30T12:01:49.032Z,30.90
2022-11-30T12:04:38.973Z,28.43
2022-11-30T12:07:18.113Z,31.20
2022-11-30T12:09:56.829Z,27.73
2022-11-30T12:12:24.948Z,29.80
2022-11-30T12:14:53.951Z,29.90
2022-11-30T12:17:36.103Z,30.30
2022-11-30T12:20:14.293Z,30.27
2022-11-30T12:22:52.472Z,32.83
2022-11-30T12:25:26.846Z,31.63
2022-11-30T12:28:02.828Z,31.60
2022-11-30T12:30:35.696Z,30.97
2022-11-30T12:33:11.857Z,33.30
2022-11-30T12:35:52.480Z,31.27
2022-11-30T12:38:33.372Z,32.10
2022-11-30T12:41:34.253Z,31.40
2022-11-30T12:44:28.715Z,30.80
2022-11-30T12:47:02.086Z,31.73
2022-11-30T12:49:40.252Z,30.20
2022-11-30T12:52:21.690Z,32.23
2022-11-30T12:54:55.247Z,31.33
2022-11-30T12:57:27.965Z,29.77
2022-11-30T13:00:03.365Z,28.10
2022-11-30T13:02:47.143Z,29.20
2022-11-30T13:05:17.163Z,32.33
2022-11-30T13:07:48.416Z,29.03
2022-11-30T13:10:26.692Z,30.23
2022-11-30T13:12:56.505Z,29.00
2022-11-30T13:15:26.969Z,32.40
2022-11-30T13:17:55.731Z,30.00
2022-11-30T13:20:30.145Z,29.77
2022-11-30T13:23:01.517Z,29.80
2022-11-30T13:26:06.969Z,30.63
2022-11-30T13:28:31.505Z,27.37
2022-11-30T13:31:01.921Z,28.03
2022-11-30T13:33:48.291Z,29.43
2022-11-30T13:36:39.573Z,31.80
2022-11-30T13:39:28.914Z,28.47
2022-11-30T13:42:34.282Z,31.17
2022-11-30T13:47:58.393Z,28.37
2022-11-30T13:50:36.226Z,29.60
2022-11-30T13:53:18.336Z,29.10
2022-11-30T13:55:56.657Z,29.23
2022-11-30T13:58:26.040Z,29.33
2022-11-30T14:01:28.029Z,31.23
2022-11-30T14:04:33.793Z,31.10
2022-11-30T14:07:06.621Z,28.00
2022-11-30T14:09:59.335Z,32.47
2022-11-30T14:12:48.919Z,28.23
2022-11-30T14:15:54.359Z,28.00
2022-11-30T14:18:41.705Z,30.77
2022-11-30T14:21:24.023Z,28.77
2022-11-30T14:23:56.806Z,31.07
2022-11-30T14:26:29.166Z,29.23
2022-11-30T14:29:05.217Z,28.17
2022-11-30T14:31:36.491Z,28.50
2022-11-30T14:34:09.865Z,29.80
2022-11-30T14:36:49.115Z,29.87
2022-11-30T14:39:35.276Z,28.43
2022-11-30T14:42:05.266Z,30.27
2022-11-30T14:44:35.766Z,29.87
2022-11-30T14:47:14.655Z,30.87
2022-11-30T14:49:47.201Z,27.43
2022-11-30T14:52:22.768Z,30.00
2022-11-30T14:54:55.762Z,31.23
2022-11-30T14:57:28.723Z,31.37
2022-11-30T14:59:57.436Z,29.70
2022-11-30T15:02:30.884Z,30.73
2022-11-30T15:05:00.166Z,27.17
2022-11-30T15:07:30.428Z,30.97
2022-11-30T15:10:04.866Z,30.73
2022-11-30T15:12:33.389Z,30.00
2022-11-30T15:15:14.241Z,32.10
2022-11-30T15:17:51.772Z,33.03
2022-11-30T15:20:26.620Z,30.87
2022-11-30T15:22:58.495Z,30.83
2022-11-30T15:25:31.935Z,30.30
2022-11-30T15:28:00.705Z,32.70
2022-11-30T15:30:29.337Z,32.60
2022-11-30T15:32:58.114Z,29.40
2022-11-30T15:35:38.768Z,30.77
2022-11-30T15:38:20.224Z,32.03
2022-11-30T15:40:55.186Z,31.60
2022-11-30T15:43:26.874Z,31.10
2022-11-30T15:45:57.531Z,31.67
2022-11-30T15:48:31.265Z,31.03
2022-11-30T15:51:00.179Z,31.07
2022-11-30T15:53:32.329Z,34.07
2022-11-30T15:56:02.493Z,32.37
2022-11-30T15:58:34.671Z,31.03
2022-11-30T16:01:12.228Z,31.00
2022-11-30T16:04:04.847Z,29.80
2022-11-30T16:06:36.356Z,33.17
2022-11-30T16:09:20.016Z,33.07
2022-11-30T16:11:48.605Z,35.67
2022-11-30T16:14:18.020Z,32.73
2022-11-30T16:16:46.686Z,31.73
2022-11-30T16:19:14.961Z,32.97
2022-11-30T16:21:43.233Z,32.23
2022-11-30T16:24:15.007Z,31.47
2022-11-30T16:26:52.508Z,33.80
2022-11-30T16:29:20.887Z,31.00
2022-11-30T16:31:49.335Z,33.97
2022-11-30T16:34:17.695Z,36.90
2022-11-30T16:36:45.864Z,44.10
2022-11-30T16:39:15.402Z,44.77
2022-11-30T16:41:45.165Z,38.73
2022-11-30T16:44:15.058Z,32.80
2022-11-30T16:46:43.226Z,33.70
2022-11-30T16:49:11.466Z,38.20
2022-11-30T16:51:41.797Z,42.13
2022-11-30T16:54:13.484Z,42.50
2022-11-30T16:56:43.299Z,44.40
2022-11-30T16:59:16.497Z,44.90
2022-11-30T17:01:47.744Z,39.93
2022-11-30T17:04:18.627Z,40.30
2022-11-30T17:06:50.272Z,38.40
2022-11-30T17:09:20.729Z,49.40
2022-11-30T17:11:51.555Z,41.57
2022-11-30T17:14:20.883Z,37.17
2022-11-30T17:16:49.184Z,42.20
2022-11-30T17:19:17.393Z,44.03
2022-11-30T17:21:45.910Z,41.97
2022-11-30T17:24:14.097Z,42.27
2022-11-30T17:26:42.272Z,42.60
2022-11-30T17:29:11.738Z,40.17
2022-11-30T17:31:40.111Z,35.83
2022-11-30T17:34:09.847Z,35.83
2022-11-30T17:36:38.181Z,39.33
2022-11-30T17:39:13.926Z,35.47
2022-11-30T17:41:53.553Z,36.73
2022-11-30T17:44:25.734Z,38.00
2022-11-30T17:46:53.866Z,38.40
2022-11-30T17:49:21.949Z,37.67
2022-11-30T17:51:50.217Z,36.60
2022-11-30T17:54:18.366Z,36.87
2022-11-30T17:56:46.501Z,35.07
2022-11-30T17:59:14.594Z,38.27
2022-11-30T18:01:44.327Z,37.30
2022-11-30T18:04:13.560Z,37.53
2022-11-30T18:06:41.671Z,36.30
2022-11-30T18:09:09.963Z,36.37
2022-11-30T18:11:38.101Z,35.07
2022-11-30T18:14:06.214Z,36.00
2022-11-30T18:16:37.034Z,33.70
2022-11-30T18:19:12.035Z,33.97
2022-11-30T18:21:41.316Z,31.93
2022-11-30T18:24:09.646Z,33.07
2022-11-30T18:26:38.962Z,34.53
2022-11-30T18:29:07.719Z,31.73
2022-11-30T18:31:36.649Z,34.17
2022-11-30T18:34:07.561Z,31.43
2022-11-30T18:36:35.958Z,34.60
2022-11-30T18:39:04.165Z,34.67
2022-11-30T18:41:32.333Z,33.10
2022-11-30T18:44:00.560Z,32.30
2022-11-30T18:46:28.694Z,36.10
2022-11-30T18:48:56.852Z,34.90
2022-11-30T18:51:27.668Z,35.03
2022-11-30T18:53:57.785Z,35.43
2022-11-30T18:56:27.169Z,33.40
2022-11-30T18:58:57.744Z,30.93
2022-11-30T19:01:29.070Z,36.27
2022-11-30T19:03:59.300Z,33.30
2022-11-30T19:06:30.118Z,35.70
2022-11-30T19:08:58.659Z,34.70
2022-11-30T19:11:27.332Z,35.77
2022-11-30T19:13:55.880Z,38.73
2022-11-30T19:16:24.776Z,34.20
2022-11-30T19:18:53.131Z,37.07
2022-11-30T19:21:22.876Z,32.20
2022-11-30T19:23:52.525Z,34.20
2022-11-30T19:26:20.676Z,33.17
2022-11-30T19:28:48.848Z,34.77
2022-11-30T19:31:18.838Z,32.23
2022-11-30T19:33:49.015Z,32.83
2022-11-30T19:36:19.345Z,33.63
2022-11-30T19:38:47.845Z,33.87
2022-11-30T19:41:18.640Z,32.83
2022-11-30T19:43:54.773Z,32.80
2022-11-30T19:46:28.052Z,31.97
2022-11-30T19:48:57.756Z,34.57
2022-11-30T19:51:25.964Z,34.40
2022-11-30T19:53:58.265Z,32.33
2022-11-30T19:56:28.646Z,34.10
2022-11-30T19:59:04.103Z,33.33
2022-11-30T20:01:35.146Z,32.97
2022-11-30T20:04:04.063Z,34.17
2022-11-30T20:06:35.863Z,32.43
2022-11-30T20:09:04.711Z,31.60
2022-11-30T20:11:35.724Z,34.80
2022-11-30T20:14:04.287Z,32.27
2022-11-30T20:16:32.627Z,32.93
2022-11-30T20:19:02.524Z,31.63
2022-11-30T20:21:32.367Z,30.57
2022-11-30T20:24:04.913Z,30.87
2022-11-30T20:26:35.924Z,28.70
2022-11-30T20:29:06.001Z,33.00
2022-11-30T20:31:36.323Z,32.30
2022-11-30T20:34:04.622Z,32.07
2022-11-30T20:36:32.792Z,31.07
2022-11-30T20:39:01.274Z,29.10
2022-11-30T20:41:29.500Z,33.20
2022-11-30T20:43:59.057Z,31.27
2022-11-30T20:46:28.854Z,29.17
2022-11-30T20:48:58.224Z,33.00
2022-11-30T20:51:31.098Z,34.07
2022-11-30T20:54:00.623Z,32.80
2022-11-30T20:56:28.808Z,31.87
2022-11-30T20:59:02.218Z,33.57
2022-11-30T21:01:30.831Z,30.93
2022-11-30T21:04:00.619Z,33.13
2022-11-30T21:06:29.172Z,33.27
2022-11-30T21:08:57.290Z,31.40
2022-11-30T21:11:25.678Z,30.57
2022-11-30T21:13:54.025Z,34.50
2022-11-30T21:16:28.104Z,31.23
2022-11-30T21:18:57.663Z,33.93
2022-11-30T21:21:28.689Z,32.23
2022-11-30T21:23:59.596Z,29.90
2022-11-30T21:26:29.571Z,30.27
2022-11-30T21:29:02.117Z,34.23
2022-11-30T21:31:32.339Z,29.97
2022-11-30T21:34:00.828Z,30.13
2022-11-30T21:36:29.218Z,33.10
2022-11-30T21:39:04.992Z,31.23
2022-11-30T21:41:34.122Z,33.60
2022-11-30T21:44:03.112Z,33.80
2022-11-30T21:46:32.735Z,32.93
2022-11-30T21:49:01.238Z,34.43
2022-11-30T21:51:31.904Z,32.30
2022-11-30T21:54:03.159Z,34.33
2022-11-30T21:56:32.776Z,35.57
2022-11-30T21:59:01.263Z,34.53
2022-11-30T22:01:30.894Z,31.30
2022-11-30T22:04:01.029Z,31.50
2022-11-30T22:06:30.405Z,31.50
2022-11-30T22:09:03.365Z,32.43
2022-11-30T22:11:32.444Z,33.13
2022-11-30T22:14:00.509Z,30.83
2022-11-30T22:16:35.583Z,33.30
2022-11-30T22:19:07.391Z,32.33
2022-11-30T22:21:36.140Z,32.13
2022-11-30T22:24:05.566Z,31.67
2022-11-30T22:26:35.152Z,33.00
2022-11-30T22:29:05.088Z,32.33
2022-11-30T22:31:34.728Z,32.53
2022-11-30T22:34:03.600Z,30.57
2022-11-30T22:36:34.932Z,30.27
2022-11-30T22:39:05.546Z,33.37
2022-11-30T22:41:34.021Z,35.47
2022-11-30T22:44:02.441Z,32.17
2022-11-30T22:46:32.612Z,34.33
2022-11-30T22:49:02.347Z,30.57
2022-11-30T22:51:33.591Z,32.60
2022-11-30T22:54:02.464Z,31.20
2022-11-30T22:56:32.233Z,30.07
2022-11-30T22:59:01.350Z,30.47
2022-11-30T23:01:31.450Z,31.90
2022-11-30T23:04:03.310Z,30.13
2022-11-30T23:06:34.246Z,32.07
2022-11-30T23:09:02.708Z,31.53
2022-11-30T23:11:31.470Z,32.13
2022-11-30T23:13:59.773Z,35.00
2022-11-30T23:16:28.094Z,32.63
2022-11-30T23:18:58.072Z,32.97
2022-11-30T23:21:29.990Z,33.57
2022-11-30T23:24:01.895Z,35.40
2022-11-30T23:26:31.434Z,33.53
2022-11-30T23:29:00.902Z,32.90
2022-11-30T23:31:33.737Z,31.40
2022-11-30T23:34:05.677Z,32.03
2022-11-30T23:36:34.150Z,31.63
2022-11-30T23:39:06.213Z,32.57
2022-11-30T23:41:34.551Z,30.67
2022-11-30T23:44:02.810Z,31.93
2022-11-30T23:46:31.491Z,31.93
2022-11-30T23:48:59.884Z,29.80
2022-11-30T23:51:27.992Z,30.53
2022-11-30T23:53:56.103Z,29.67
2022-11-30T23:56:25.882Z,32.53
2022-11-30T23:58:54.394Z,29.63
